sensor_id;sensor_type;location;lat;lon;timestamp;pressure;altitude;pressure_sealevel;temperature;humidity
6530;BME280;3298;42.688;23.366;2023-02-02T00:00:55;51788.72;;;-145.06;48.77
6530;BME280;3298;42.688;23.366;2023-02-02T00:03:22;51782.59;;;-145.06;48.57
6530;BME280;3298;42.688;23.366;2023-02-02T00:05:50;51798.97;;;-145.06;48.78
6530;BME280;3298;42.688;23.366;2023-02-02T00:08:20;51792.81;;;-145.06;48.71
6530;BME280;3298;42.688;23.366;2023-02-02T00:10:47;51809.19;;;-145.06;48.67
6530;BME280;3298;42.688;23.366;2023-02-02T00:13:14;51796.91;;;-145.06;48.24
6530;BME280;3298;42.688;23.366;2023-02-02T00:15:41;51755.97;;;-145.06;48.41
6530;BME280;3298;42.688;23.366;2023-02-02T00:18:08;51780.53;;;-145.06;48.21
6530;BME280;3298;42.688;23.366;2023-02-02T00:20:35;51782.59;;;-145.06;48.37
6530;BME280;3298;42.688;23.366;2023-02-02T00:23:02;51790.78;;;-145.06;48.44
6530;BME280;3298;42.688;23.366;2023-02-02T00:25:30;51770.31;;;-145.06;48.51
6530;BME280;3298;42.688;23.366;2023-02-02T00:27:57;51801.00;;;-145.06;48.49
6530;BME280;3298;42.688;23.366;2023-02-02T00:30:24;51796.91;;;-145.06;48.19
6530;BME280;3298;42.688;23.366;2023-02-02T00:32:51;51776.44;;;-145.06;48.52
6530;BME280;3298;42.688;23.366;2023-02-02T00:35:18;51778.50;;;-145.06;48.43
6530;BME280;3298;42.688;23.366;2023-02-02T00:37:45;51809.19;;;-145.06;48.25
6530;BME280;3298;42.688;23.366;2023-02-02T00:40:12;51798.97;;;-145.06;48.56
6530;BME280;3298;42.688;23.366;2023-02-02T00:42:41;51790.78;;;-145.06;48.23
6530;BME280;3298;42.688;23.366;2023-02-02T00:45:13;51786.69;;;-145.06;48.43
6530;BME280;3298;42.688;23.366;2023-02-02T00:47:43;51811.25;;;-145.06;48.76
6530;BME280;3298;42.688;23.366;2023-02-02T00:50:11;51798.97;;;-145.06;49.44
6530;BME280;3298;42.688;23.366;2023-02-02T00:52:39;51801.00;;;-145.06;49.49
6530;BME280;3298;42.688;23.366;2023-02-02T00:55:06;51784.63;;;-145.06;49.57
6530;BME280;3298;42.688;23.366;2023-02-02T00:57:33;51778.50;;;-145.06;49.02
6530;BME280;3298;42.688;23.366;2023-02-02T01:00:02;51784.63;;;-145.06;49.19
6530;BME280;3298;42.688;23.366;2023-02-02T01:02:31;51782.59;;;-145.06;49.71
6530;BME280;3298;42.688;23.366;2023-02-02T01:04:58;51803.06;;;-145.06;49.87
6530;BME280;3298;42.688;23.366;2023-02-02T01:07:25;51794.88;;;-145.06;50.15
6530;BME280;3298;42.688;23.366;2023-02-02T01:09:52;51803.06;;;-145.06;50.49
6530;BME280;3298;42.688;23.366;2023-02-02T01:12:18;51778.50;;;-145.06;50.74
6530;BME280;3298;42.688;23.366;2023-02-02T01:14:45;51768.25;;;-145.06;51.03
6530;BME280;3298;42.688;23.366;2023-02-02T01:17:13;51807.16;;;-145.06;51.85
6530;BME280;3298;42.688;23.366;2023-02-02T01:19:40;51772.34;;;-145.06;52.06
6530;BME280;3298;42.688;23.366;2023-02-02T01:22:07;51778.50;;;-145.06;52.49
6530;BME280;3298;42.688;23.366;2023-02-02T01:24:34;51790.78;;;-145.06;52.74
6530;BME280;3298;42.688;23.366;2023-02-02T01:27:01;51817.38;;;-145.06;53.18
6530;BME280;3298;42.688;23.366;2023-02-02T01:29:28;51776.44;;;-145.06;53.88
6530;BME280;3298;42.688;23.366;2023-02-02T01:31:54;51819.44;;;-145.06;54.54
6530;BME280;3298;42.688;23.366;2023-02-02T01:34:23;51784.63;;;-145.06;54.83
6530;BME280;3298;42.688;23.366;2023-02-02T01:36:50;51794.88;;;-145.06;54.96
6530;BME280;3298;42.688;23.366;2023-02-02T01:39:16;51753.94;;;-145.06;56.17
6530;BME280;3298;42.688;23.366;2023-02-02T01:41:43;51790.78;;;-145.06;56.07
6530;BME280;3298;42.688;23.366;2023-02-02T01:47:14;51792.81;;;-145.06;57.30
6530;BME280;3298;42.688;23.366;2023-02-02T01:49:43;51790.78;;;-145.06;57.25
6530;BME280;3298;42.688;23.366;2023-02-02T01:52:11;51788.72;;;-145.06;57.79
6530;BME280;3298;42.688;23.366;2023-02-02T01:54:43;51792.81;;;-145.06;57.90
6530;BME280;3298;42.688;23.366;2023-02-02T01:57:14;51794.88;;;-145.06;58.10
6530;BME280;3298;42.688;23.366;2023-02-02T01:59:42;51782.59;;;-145.06;58.25
6530;BME280;3298;42.688;23.366;2023-02-02T02:02:10;51796.91;;;-145.06;58.77
6530;BME280;3298;42.688;23.366;2023-02-02T02:04:36;51770.31;;;-145.06;59.30
6530;BME280;3298;42.688;23.366;2023-02-02T02:07:05;51798.97;;;-145.06;59.37
6530;BME280;3298;42.688;23.366;2023-02-02T02:09:33;51772.34;;;-145.06;59.77
6530;BME280;3298;42.688;23.366;2023-02-02T02:12:00;51807.16;;;-145.06;59.77
6530;BME280;3298;42.688;23.366;2023-02-02T02:14:27;51794.88;;;-145.06;59.76
6530;BME280;3298;42.688;23.366;2023-02-02T02:17:21;51784.63;;;-145.06;59.72
6530;BME280;3298;42.688;23.366;2023-02-02T02:23:24;51786.69;;;-145.06;58.31
6530;BME280;3298;42.688;23.366;2023-02-02T02:26:39;51758.03;;;-145.06;58.61
6530;BME280;3298;42.688;23.366;2023-02-02T02:29:28;51749.84;;;-145.06;58.75
6530;BME280;3298;42.688;23.366;2023-02-02T02:32:18;51803.06;;;-145.06;58.62
6530;BME280;3298;42.688;23.366;2023-02-02T02:34:52;51790.78;;;-145.06;59.26
6530;BME280;3298;42.688;23.366;2023-02-02T02:37:32;51788.72;;;-145.06;59.19
6530;BME280;3298;42.688;23.366;2023-02-02T02:40:07;51790.78;;;-145.06;59.24
6530;BME280;3298;42.688;23.366;2023-02-02T02:42:39;51786.69;;;-145.06;59.48
6530;BME280;3298;42.688;23.366;2023-02-02T02:45:10;51766.22;;;-145.06;59.32
6530;BME280;3298;42.688;23.366;2023-02-02T02:47:39;51796.91;;;-145.06;60.09
6530;BME280;3298;42.688;23.366;2023-02-02T02:50:08;51782.59;;;-145.06;60.13
6530;BME280;3298;42.688;23.366;2023-02-02T02:52:35;51772.34;;;-145.06;60.32
6530;BME280;3298;42.688;23.366;2023-02-02T02:55:04;51774.41;;;-145.06;60.40
6530;BME280;3298;42.688;23.366;2023-02-02T03:00:39;51782.59;;;-145.06;60.11
6530;BME280;3298;42.688;23.366;2023-02-02T03:03:15;51803.06;;;-145.06;59.98
6530;BME280;3298;42.688;23.366;2023-02-02T03:05:50;51790.78;;;-145.06;59.89
6530;BME280;3298;42.688;23.366;2023-02-02T03:08:23;51778.50;;;-145.06;59.90
6530;BME280;3298;42.688;23.366;2023-02-02T03:10:52;51760.06;;;-145.06;59.99
6530;BME280;3298;42.688;23.366;2023-02-02T03:13:21;51798.97;;;-145.06;60.07
6530;BME280;3298;42.688;23.366;2023-02-02T03:15:48;51784.63;;;-145.06;59.91
6530;BME280;3298;42.688;23.366;2023-02-02T03:18:16;51798.97;;;-145.06;59.44
6530;BME280;3298;42.688;23.366;2023-02-02T03:20:45;51770.31;;;-145.06;59.88
6530;BME280;3298;42.688;23.366;2023-02-02T03:23:12;51784.63;;;-145.06;59.73
6530;BME280;3298;42.688;23.366;2023-02-02T03:25:39;51782.59;;;-145.06;59.27
6530;BME280;3298;42.688;23.366;2023-02-02T03:28:07;51780.53;;;-145.06;58.75
6530;BME280;3298;42.688;23.366;2023-02-02T03:30:34;51790.78;;;-145.06;58.65
6530;BME280;3298;42.688;23.366;2023-02-02T03:33:02;51766.22;;;-145.06;58.31
6530;BME280;3298;42.688;23.366;2023-02-02T03:35:31;51760.06;;;-145.06;58.49
6530;BME280;3298;42.688;23.366;2023-02-02T03:37:58;51782.59;;;-145.06;58.65
6530;BME280;3298;42.688;23.366;2023-02-02T03:40:26;51790.78;;;-145.06;59.14
6530;BME280;3298;42.688;23.366;2023-02-02T03:42:53;51798.97;;;-145.06;59.59
6530;BME280;3298;42.688;23.366;2023-02-02T03:45:20;51807.16;;;-145.06;59.06
6530;BME280;3298;42.688;23.366;2023-02-02T03:47:47;51778.50;;;-145.06;59.04
6530;BME280;3298;42.688;23.366;2023-02-02T03:50:14;51805.09;;;-145.06;59.22
6530;BME280;3298;42.688;23.366;2023-02-02T03:52:43;51796.91;;;-145.06;59.90
6530;BME280;3298;42.688;23.366;2023-02-02T03:55:10;51755.97;;;-145.06;62.57
6530;BME280;3298;42.688;23.366;2023-02-02T03:57:36;51782.59;;;-145.06;63.35
6530;BME280;3298;42.688;23.366;2023-02-02T04:00:04;51786.69;;;-145.06;64.94
6530;BME280;3298;42.688;23.366;2023-02-02T04:02:31;51778.50;;;-145.06;65.60
6530;BME280;3298;42.688;23.366;2023-02-02T04:04:58;51782.59;;;-145.06;66.31
6530;BME280;3298;42.688;23.366;2023-02-02T04:07:25;51801.00;;;-145.06;66.46
6530;BME280;3298;42.688;23.366;2023-02-02T04:09:53;51776.44;;;-145.06;66.49
6530;BME280;3298;42.688;23.366;2023-02-02T04:12:19;51786.69;;;-145.06;65.52
6530;BME280;3298;42.688;23.366;2023-02-02T04:14:46;51803.06;;;-145.06;64.62
6530;BME280;3298;42.688;23.366;2023-02-02T04:17:13;51782.59;;;-145.06;63.51
6530;BME280;3298;42.688;23.366;2023-02-02T04:19:40;51760.06;;;-145.06;63.10
6530;BME280;3298;42.688;23.366;2023-02-02T04:22:06;51749.84;;;-145.06;62.86
6530;BME280;3298;42.688;23.366;2023-02-02T04:24:33;51796.91;;;-145.06;61.84
6530;BME280;3298;42.688;23.366;2023-02-02T04:27:01;51772.34;;;-145.06;62.04
6530;BME280;3298;42.688;23.366;2023-02-02T04:29:28;51792.81;;;-145.06;61.52
6530;BME280;3298;42.688;23.366;2023-02-02T04:31:55;51758.03;;;-145.06;61.47
6530;BME280;3298;42.688;23.366;2023-02-02T04:34:22;51776.44;;;-145.06;61.03
6530;BME280;3298;42.688;23.366;2023-02-02T04:36:48;51786.69;;;-145.06;60.97
6530;BME280;3298;42.688;23.366;2023-02-02T04:39:15;51776.44;;;-145.06;61.10
6530;BME280;3298;42.688;23.366;2023-02-02T04:41:42;51788.72;;;-145.06;60.43
6530;BME280;3298;42.688;23.366;2023-02-02T04:44:13;51782.59;;;-145.06;60.56
6530;BME280;3298;42.688;23.366;2023-02-02T04:46:41;51784.63;;;-145.06;60.34
6530;BME280;3298;42.688;23.366;2023-02-02T04:49:08;51749.84;;;-145.06;60.09
6530;BME280;3298;42.688;23.366;2023-02-02T04:51:36;51788.72;;;-145.06;61.03
6530;BME280;3298;42.688;23.366;2023-02-02T04:54:03;51815.34;;;-145.06;60.82
6530;BME280;3298;42.688;23.366;2023-02-02T04:56:30;51803.06;;;-145.06;61.06
6530;BME280;3298;42.688;23.366;2023-02-02T04:58:57;51776.44;;;-145.06;60.99
6530;BME280;3298;42.688;23.366;2023-02-02T05:01:25;51796.91;;;-145.06;60.80
6530;BME280;3298;42.688;23.366;2023-02-02T05:03:53;51807.16;;;-145.06;60.31
6530;BME280;3298;42.688;23.366;2023-02-02T05:06:20;51780.53;;;-145.06;60.66
6530;BME280;3298;42.688;23.366;2023-02-02T05:08:47;51784.63;;;-145.06;60.32
6530;BME280;3298;42.688;23.366;2023-02-02T05:11:16;51778.50;;;-145.06;60.16
6530;BME280;3298;42.688;23.366;2023-02-02T05:13:45;51792.81;;;-145.06;60.79
6530;BME280;3298;42.688;23.366;2023-02-02T05:16:12;51745.75;;;-145.06;60.64
6530;BME280;3298;42.688;23.366;2023-02-02T05:18:42;51794.88;;;-145.06;60.92
6530;BME280;3298;42.688;23.366;2023-02-02T05:21:09;51780.53;;;-145.06;61.02
6530;BME280;3298;42.688;23.366;2023-02-02T05:23:35;51760.06;;;-145.06;61.25
6530;BME280;3298;42.688;23.366;2023-02-02T05:26:02;51766.22;;;-145.06;60.96
6530;BME280;3298;42.688;23.366;2023-02-02T05:28:29;51786.69;;;-145.06;61.28
6530;BME280;3298;42.688;23.366;2023-02-02T05:30:56;51772.34;;;-145.06;61.02
6530;BME280;3298;42.688;23.366;2023-02-02T05:33:23;51782.59;;;-145.06;61.48
6530;BME280;3298;42.688;23.366;2023-02-02T05:35:51;51776.44;;;-145.06;61.95
6530;BME280;3298;42.688;23.366;2023-02-02T05:38:18;51792.81;;;-145.06;62.05
6530;BME280;3298;42.688;23.366;2023-02-02T05:40:47;51778.50;;;-145.06;61.94
6530;BME280;3298;42.688;23.366;2023-02-02T05:43:14;51798.97;;;-145.06;61.32
6530;BME280;3298;42.688;23.366;2023-02-02T05:45:41;51739.59;;;-145.06;61.16
6530;BME280;3298;42.688;23.366;2023-02-02T05:48:08;51782.59;;;-145.06;61.16
6530;BME280;3298;42.688;23.366;2023-02-02T05:50:35;51774.41;;;-145.06;61.27
6530;BME280;3298;42.688;23.366;2023-02-02T05:53:03;51782.59;;;-145.06;61.66
6530;BME280;3298;42.688;23.366;2023-02-02T05:55:30;51794.88;;;-145.06;61.13
6530;BME280;3298;42.688;23.366;2023-02-02T05:57:57;51762.13;;;-145.06;60.87
6530;BME280;3298;42.688;23.366;2023-02-02T06:00:24;51782.59;;;-145.06;61.19
6530;BME280;3298;42.688;23.366;2023-02-02T06:02:50;51766.22;;;-145.06;61.73
6530;BME280;3298;42.688;23.366;2023-02-02T06:05:17;51782.59;;;-145.06;61.95
6530;BME280;3298;42.688;23.366;2023-02-02T06:07:44;51790.78;;;-145.06;62.25
6530;BME280;3298;42.688;23.366;2023-02-02T06:10:12;51784.63;;;-145.06;62.85
6530;BME280;3298;42.688;23.366;2023-02-02T06:12:39;51780.53;;;-145.06;63.07
6530;BME280;3298;42.688;23.366;2023-02-02T06:15:07;51805.09;;;-145.06;63.30
6530;BME280;3298;42.688;23.366;2023-02-02T06:17:34;51770.31;;;-145.06;63.81
6530;BME280;3298;42.688;23.366;2023-02-02T06:20:00;51815.34;;;-145.06;62.88
6530;BME280;3298;42.688;23.366;2023-02-02T06:22:27;51770.31;;;-145.06;62.84
6530;BME280;3298;42.688;23.366;2023-02-02T06:24:54;51782.59;;;-145.06;62.46
6530;BME280;3298;42.688;23.366;2023-02-02T06:27:22;51753.94;;;-145.06;62.72
6530;BME280;3298;42.688;23.366;2023-02-02T06:29:49;51782.59;;;-145.06;62.32
6530;BME280;3298;42.688;23.366;2023-02-02T06:32:16;51778.50;;;-145.06;61.94
6530;BME280;3298;42.688;23.366;2023-02-02T06:34:43;51760.06;;;-145.06;61.96
6530;BME280;3298;42.688;23.366;2023-02-02T06:37:10;51753.94;;;-145.06;61.50
6530;BME280;3298;42.688;23.366;2023-02-02T06:39:36;51762.13;;;-145.06;61.14
6530;BME280;3298;42.688;23.366;2023-02-02T06:42:03;51798.97;;;-145.06;61.16
6530;BME280;3298;42.688;23.366;2023-02-02T06:44:31;51778.50;;;-145.06;60.97
6530;BME280;3298;42.688;23.366;2023-02-02T06:46:58;51807.16;;;-145.06;60.78
6530;BME280;3298;42.688;23.366;2023-02-02T06:49:25;51794.88;;;-145.06;60.80
6530;BME280;3298;42.688;23.366;2023-02-02T06:51:52;51784.63;;;-145.06;60.39
6530;BME280;3298;42.688;23.366;2023-02-02T06:54:18;51790.78;;;-145.06;60.57
6530;BME280;3298;42.688;23.366;2023-02-02T06:56:45;51780.53;;;-145.06;61.47
6530;BME280;3298;42.688;23.366;2023-02-02T06:59:12;51768.25;;;-145.06;61.09
6530;BME280;3298;42.688;23.366;2023-02-02T07:01:40;51776.44;;;-145.06;61.46
6530;BME280;3298;42.688;23.366;2023-02-02T07:04:07;51872.66;;;-145.06;61.66
6530;BME280;3298;42.688;23.366;2023-02-02T07:06:34;51782.59;;;-145.06;61.21
6530;BME280;3298;42.688;23.366;2023-02-02T07:09:00;51764.16;;;-145.06;61.02
6530;BME280;3298;42.688;23.366;2023-02-02T07:11:27;51796.91;;;-145.06;60.63
6530;BME280;3298;42.688;23.366;2023-02-02T07:13:54;51776.44;;;-145.06;61.25
6530;BME280;3298;42.688;23.366;2023-02-02T07:16:21;51786.69;;;-145.06;61.21
6530;BME280;3298;42.688;23.366;2023-02-02T07:18:49;51798.97;;;-145.06;60.96
6530;BME280;3298;42.688;23.366;2023-02-02T07:21:19;51776.44;;;-145.06;60.16
6530;BME280;3298;42.688;23.366;2023-02-02T07:23:46;51778.50;;;-145.06;60.24
6530;BME280;3298;42.688;23.366;2023-02-02T07:26:14;51764.16;;;-145.06;60.02
6530;BME280;3298;42.688;23.366;2023-02-02T07:28:42;51784.63;;;-145.06;60.39
6530;BME280;3298;42.688;23.366;2023-02-02T07:31:13;51803.06;;;-145.06;60.85
6530;BME280;3298;42.688;23.366;2023-02-02T07:33:41;51780.53;;;-145.06;61.01
6530;BME280;3298;42.688;23.366;2023-02-02T07:36:09;51778.50;;;-145.06;60.34
6530;BME280;3298;42.688;23.366;2023-02-02T07:38:36;51780.53;;;-145.06;60.28
6530;BME280;3298;42.688;23.366;2023-02-02T07:41:03;51798.97;;;-145.06;59.54
6530;BME280;3298;42.688;23.366;2023-02-02T07:43:30;51778.50;;;-145.06;59.83
6530;BME280;3298;42.688;23.366;2023-02-02T07:45:59;51760.06;;;-145.06;59.70
6530;BME280;3298;42.688;23.366;2023-02-02T07:48:27;51796.91;;;-145.06;59.47
6530;BME280;3298;42.688;23.366;2023-02-02T07:50:57;51764.16;;;-145.06;59.19
6530;BME280;3298;42.688;23.366;2023-02-02T07:53:25;51766.22;;;-145.06;58.28
6530;BME280;3298;42.688;23.366;2023-02-02T07:55:52;51778.50;;;-145.06;57.81
6530;BME280;3298;42.688;23.366;2023-02-02T07:58:19;51749.84;;;-145.06;56.63
6530;BME280;3298;42.688;23.366;2023-02-02T08:00:46;51790.78;;;-145.06;57.05
6530;BME280;3298;42.688;23.366;2023-02-02T08:03:13;51753.94;;;-145.06;56.73
6530;BME280;3298;42.688;23.366;2023-02-02T08:05:39;51745.75;;;-145.06;56.66
6530;BME280;3298;42.688;23.366;2023-02-02T08:08:06;51758.03;;;-145.06;56.29
6530;BME280;3298;42.688;23.366;2023-02-02T08:10:34;51753.94;;;-145.06;55.57
6530;BME280;3298;42.688;23.366;2023-02-02T08:13:01;51770.31;;;-145.06;55.28
6530;BME280;3298;42.688;23.366;2023-02-02T08:15:28;51749.84;;;-145.06;54.67
6530;BME280;3298;42.688;23.366;2023-02-02T08:17:54;51762.13;;;-145.06;54.64
6530;BME280;3298;42.688;23.366;2023-02-02T08:20:21;51790.78;;;-145.06;55.21
6530;BME280;3298;42.688;23.366;2023-02-02T08:22:48;51760.06;;;-145.06;55.27
6530;BME280;3298;42.688;23.366;2023-02-02T08:25:15;51770.31;;;-145.06;54.75
6530;BME280;3298;42.688;23.366;2023-02-02T08:27:43;51794.88;;;-145.06;55.36
6530;BME280;3298;42.688;23.366;2023-02-02T08:30:11;51778.50;;;-145.06;55.12
6530;BME280;3298;42.688;23.366;2023-02-02T08:32:38;51768.25;;;-145.06;55.35
6530;BME280;3298;42.688;23.366;2023-02-02T08:35:06;51741.66;;;-145.06;55.25
6530;BME280;3298;42.688;23.366;2023-02-02T08:37:32;51786.69;;;-145.06;55.83
6530;BME280;3298;42.688;23.366;2023-02-02T08:39:59;51758.03;;;-145.06;55.77
6530;BME280;3298;42.688;23.366;2023-02-02T08:42:26;51778.50;;;-145.06;56.08
6530;BME280;3298;42.688;23.366;2023-02-02T08:44:54;51788.72;;;-145.06;54.94
6530;BME280;3298;42.688;23.366;2023-02-02T08:47:21;51760.06;;;-145.06;53.66
6530;BME280;3298;42.688;23.366;2023-02-02T08:49:48;51770.31;;;-145.06;53.03
6530;BME280;3298;42.688;23.366;2023-02-02T08:52:14;51780.53;;;-145.06;51.94
6530;BME280;3298;42.688;23.366;2023-02-02T08:54:41;51786.69;;;-145.06;50.99
6530;BME280;3298;42.688;23.366;2023-02-02T08:57:08;51786.69;;;-145.06;50.15
6530;BME280;3298;42.688;23.366;2023-02-02T08:59:34;51768.25;;;-145.06;49.71
6530;BME280;3298;42.688;23.366;2023-02-02T09:02:03;51780.53;;;-145.06;49.25
6530;BME280;3298;42.688;23.366;2023-02-02T09:04:30;51776.44;;;-145.06;48.80
6530;BME280;3298;42.688;23.366;2023-02-02T09:06:56;51786.69;;;-145.06;48.39
6530;BME280;3298;42.688;23.366;2023-02-02T09:09:23;51768.25;;;-145.06;48.34
6530;BME280;3298;42.688;23.366;2023-02-02T09:11:50;51786.69;;;-145.06;48.22
6530;BME280;3298;42.688;23.366;2023-02-02T09:14:17;51766.22;;;-145.06;47.35
6530;BME280;3298;42.688;23.366;2023-02-02T09:16:43;51755.97;;;-145.06;47.54
6530;BME280;3298;42.688;23.366;2023-02-02T09:19:11;51770.31;;;-145.06;47.25
6530;BME280;3298;42.688;23.366;2023-02-02T09:21:38;51790.78;;;-145.06;46.78
6530;BME280;3298;42.688;23.366;2023-02-02T09:24:06;51758.03;;;-145.06;46.26
6530;BME280;3298;42.688;23.366;2023-02-02T09:26:33;51776.44;;;-145.06;45.97
6530;BME280;3298;42.688;23.366;2023-02-02T09:29:02;51764.16;;;-145.06;45.52
6530;BME280;3298;42.688;23.366;2023-02-02T09:31:31;51766.22;;;-145.06;45.63
6530;BME280;3298;42.688;23.366;2023-02-02T09:34:00;51790.78;;;-145.06;45.66
6530;BME280;3298;42.688;23.366;2023-02-02T09:36:28;51794.88;;;-145.06;45.87
6530;BME280;3298;42.688;23.366;2023-02-02T09:38:55;51762.13;;;-145.06;45.76
6530;BME280;3298;42.688;23.366;2023-02-02T09:41:48;51755.97;;;-145.06;45.16
6530;BME280;3298;42.688;23.366;2023-02-02T09:44:28;51805.09;;;-145.06;44.71
6530;BME280;3298;42.688;23.366;2023-02-02T09:47:05;51798.97;;;-145.06;43.97
6530;BME280;3298;42.688;23.366;2023-02-02T09:49:43;51778.50;;;-145.06;43.59
6530;BME280;3298;42.688;23.366;2023-02-02T09:52:20;51784.63;;;-145.06;43.46
6530;BME280;3298;42.688;23.366;2023-02-02T09:54:50;51782.59;;;-145.06;43.08
6530;BME280;3298;42.688;23.366;2023-02-02T09:57:21;51790.78;;;-145.06;43.11
6530;BME280;3298;42.688;23.366;2023-02-02T09:59:50;51788.72;;;-145.06;42.90
6530;BME280;3298;42.688;23.366;2023-02-02T10:02:22;51778.50;;;-145.06;42.26
6530;BME280;3298;42.688;23.366;2023-02-02T10:04:52;51784.63;;;-145.06;42.36
6530;BME280;3298;42.688;23.366;2023-02-02T10:07:26;51762.13;;;-145.06;42.35
6530;BME280;3298;42.688;23.366;2023-02-02T10:09:58;51778.50;;;-145.06;41.88
6530;BME280;3298;42.688;23.366;2023-02-02T10:12:32;51768.25;;;-145.06;41.76
6530;BME280;3298;42.688;23.366;2023-02-02T10:15:04;51776.44;;;-145.06;41.56
6530;BME280;3298;42.688;23.366;2023-02-02T10:17:40;51762.13;;;-145.06;41.31
6530;BME280;3298;42.688;23.366;2023-02-02T10:20:20;51770.31;;;-145.06;41.04
6530;BME280;3298;42.688;23.366;2023-02-02T10:22:53;51794.88;;;-145.06;41.13
6530;BME280;3298;42.688;23.366;2023-02-02T10:25:21;51755.97;;;-145.06;40.53
6530;BME280;3298;42.688;23.366;2023-02-02T10:27:57;51790.78;;;-145.06;40.50
6530;BME280;3298;42.688;23.366;2023-02-02T10:30:36;51794.88;;;-145.06;41.14
6530;BME280;3298;42.688;23.366;2023-02-02T10:33:14;51790.78;;;-145.06;40.87
6530;BME280;3298;42.688;23.366;2023-02-02T10:35:49;51801.00;;;-145.06;40.36
6530;BME280;3298;42.688;23.366;2023-02-02T10:38:23;51790.78;;;-145.06;40.40
6530;BME280;3298;42.688;23.366;2023-02-02T10:40:58;51778.50;;;-145.06;40.56
6530;BME280;3298;42.688;23.366;2023-02-02T10:43:53;51788.72;;;-145.06;40.21
6530;BME280;3298;42.688;23.366;2023-02-02T10:46:29;51770.31;;;-145.06;39.93
6530;BME280;3298;42.688;23.366;2023-02-02T10:49:10;51778.50;;;-145.06;39.75
6530;BME280;3298;42.688;23.366;2023-02-02T10:51:40;51753.94;;;-145.06;39.70
6530;BME280;3298;42.688;23.366;2023-02-02T10:54:24;51798.97;;;-145.06;39.48
6530;BME280;3298;42.688;23.366;2023-02-02T10:56:57;51766.22;;;-145.06;40.12
6530;BME280;3298;42.688;23.366;2023-02-02T10:59:29;51782.59;;;-145.06;39.70
6530;BME280;3298;42.688;23.366;2023-02-02T11:01:57;51856.28;;;-145.06;39.70
6530;BME280;3298;42.688;23.366;2023-02-02T11:04:24;51768.25;;;-145.06;39.09
6530;BME280;3298;42.688;23.366;2023-02-02T11:07:20;51790.78;;;-145.06;39.54
6530;BME280;3298;42.688;23.366;2023-02-02T11:09:49;51758.03;;;-145.06;39.37
6530;BME280;3298;42.688;23.366;2023-02-02T11:12:21;51772.34;;;-145.06;39.33
6530;BME280;3298;42.688;23.366;2023-02-02T11:14:53;51780.53;;;-145.06;39.39
6530;BME280;3298;42.688;23.366;2023-02-02T11:17:23;51776.44;;;-145.06;39.37
6530;BME280;3298;42.688;23.366;2023-02-02T11:19:50;51786.69;;;-145.06;39.25
6530;BME280;3298;42.688;23.366;2023-02-02T11:22:25;51762.13;;;-145.06;38.76
6530;BME280;3298;42.688;23.366;2023-02-02T11:24:56;51766.22;;;-145.06;39.05
6530;BME280;3298;42.688;23.366;2023-02-02T11:27:25;51782.59;;;-145.06;38.68
6530;BME280;3298;42.688;23.366;2023-02-02T11:29:54;51790.78;;;-145.06;37.93
6530;BME280;3298;42.688;23.366;2023-02-02T11:32:28;51792.81;;;-145.06;37.54
6530;BME280;3298;42.688;23.366;2023-02-02T11:35:21;51798.97;;;-145.06;37.41
6530;BME280;3298;42.688;23.366;2023-02-02T11:37:57;51786.69;;;-145.06;36.88
6530;BME280;3298;42.688;23.366;2023-02-02T11:40:32;51803.06;;;-145.06;36.87
6530;BME280;3298;42.688;23.366;2023-02-02T11:43:03;51762.13;;;-145.06;37.35
6530;BME280;3298;42.688;23.366;2023-02-02T11:45:33;51764.16;;;-145.06;36.50
6530;BME280;3298;42.688;23.366;2023-02-02T11:48:04;51788.72;;;-145.06;36.39
6530;BME280;3298;42.688;23.366;2023-02-02T11:50:32;51753.94;;;-145.06;35.89
6530;BME280;3298;42.688;23.366;2023-02-02T11:52:59;51778.50;;;-145.06;35.67
6530;BME280;3298;42.688;23.366;2023-02-02T11:55:28;51782.59;;;-145.06;35.44
6530;BME280;3298;42.688;23.366;2023-02-02T11:58:19;51782.59;;;-145.06;35.15
6530;BME280;3298;42.688;23.366;2023-02-02T12:00:51;51766.22;;;-145.06;35.42
6530;BME280;3298;42.688;23.366;2023-02-02T12:03:24;51778.50;;;-145.06;35.10
6530;BME280;3298;42.688;23.366;2023-02-02T12:05:52;51782.59;;;-145.06;35.06
6530;BME280;3298;42.688;23.366;2023-02-02T12:08:19;51772.34;;;-145.06;34.68
6530;BME280;3298;42.688;23.366;2023-02-02T12:10:57;51811.25;;;-145.06;35.15
6530;BME280;3298;42.688;23.366;2023-02-02T12:13:41;51770.31;;;-145.06;34.73
6530;BME280;3298;42.688;23.366;2023-02-02T12:16:22;51794.88;;;-145.06;35.60
6530;BME280;3298;42.688;23.366;2023-02-02T12:19:04;51811.25;;;-145.06;36.30
6530;BME280;3298;42.688;23.366;2023-02-02T12:21:42;51809.19;;;-145.06;37.19
6530;BME280;3298;42.688;23.366;2023-02-02T12:24:24;51807.16;;;-145.06;37.80
6530;BME280;3298;42.688;23.366;2023-02-02T12:27:01;51790.78;;;-145.06;38.59
6530;BME280;3298;42.688;23.366;2023-02-02T12:29:48;51768.25;;;-145.06;38.74
6530;BME280;3298;42.688;23.366;2023-02-02T12:32:26;51784.63;;;-145.06;38.86
6530;BME280;3298;42.688;23.366;2023-02-02T12:35:10;51827.63;;;-145.06;39.17
6530;BME280;3298;42.688;23.366;2023-02-02T12:37:53;51784.63;;;-145.06;39.43
6530;BME280;3298;42.688;23.366;2023-02-02T12:43:33;51776.44;;;-145.06;38.03
6530;BME280;3298;42.688;23.366;2023-02-02T12:46:20;51780.53;;;-145.06;38.26
6530;BME280;3298;42.688;23.366;2023-02-02T12:49:10;51807.16;;;-145.06;37.87
6530;BME280;3298;42.688;23.366;2023-02-02T12:51:50;51794.88;;;-145.06;37.98
6530;BME280;3298;42.688;23.366;2023-02-02T12:54:34;51780.53;;;-145.06;37.87
6530;BME280;3298;42.688;23.366;2023-02-02T12:57:11;51794.88;;;-145.06;38.40
6530;BME280;3298;42.688;23.366;2023-02-02T13:00:12;51794.88;;;-145.06;38.58
6530;BME280;3298;42.688;23.366;2023-02-02T13:02:59;51792.81;;;-145.06;38.33
6530;BME280;3298;42.688;23.366;2023-02-02T13:05:43;51786.69;;;-145.06;38.57
6530;BME280;3298;42.688;23.366;2023-02-02T13:08:20;51786.69;;;-145.06;38.68
6530;BME280;3298;42.688;23.366;2023-02-02T13:10:52;51782.59;;;-145.06;38.60
6530;BME280;3298;42.688;23.366;2023-02-02T13:13:22;51798.97;;;-145.06;38.64
6530;BME280;3298;42.688;23.366;2023-02-02T13:15:56;51764.16;;;-145.06;38.42
6530;BME280;3298;42.688;23.366;2023-02-02T13:18:29;51796.91;;;-145.06;38.68